sensor_id;sensor_type;location;lat;lon;timestamp;temperature;humidity
3256;DHT22;1640;48.504;9.224;2022-08-24T00:01:52;17.90;57.80
3256;DHT22;1640;48.504;9.224;2022-08-24T00:04:20;17.90;58.60
3256;DHT22;1640;48.504;9.224;2022-08-24T00:06:49;17.80;58.80
3256;DHT22;1640;48.504;9.224;2022-08-24T00:09:18;17.80;59.20
3256;DHT22;1640;48.504;9.224;2022-08-24T00:11:45;17.70;58.20
3256;DHT22;1640;48.504;9.224;2022-08-24T00:14:13;17.60;57.00
3256;DHT22;1640;48.504;9.224;2022-08-24T00:16:41;17.60;56.90
3256;DHT22;1640;48.504;9.224;2022-08-24T00:19:09;17.50;55.60
3256;DHT22;1640;48.504;9.224;2022-08-24T00:21:37;17.50;55.00
3256;DHT22;1640;48.504;9.224;2022-08-24T00:24:06;17.40;55.20
3256;DHT22;1640;48.504;9.224;2022-08-24T00:26:34;17.40;55.20
3256;DHT22;1640;48.504;9.224;2022-08-24T00:29:03;17.40;53.50
3256;DHT22;1640;48.504;9.224;2022-08-24T00:31:31;17.40;52.40
3256;DHT22;1640;48.504;9.224;2022-08-24T00:33:58;17.40;52.40
3256;DHT22;1640;48.504;9.224;2022-08-24T00:36:25;17.40;52.10
3256;DHT22;1640;48.504;9.224;2022-08-24T00:38:53;17.30;51.30
3256;DHT22;1640;48.504;9.224;2022-08-24T00:41:22;17.30;50.60
3256;DHT22;1640;48.504;9.224;2022-08-24T00:43:51;17.20;49.90
3256;DHT22;1640;48.504;9.224;2022-08-24T00:46:23;17.20;49.80
3256;DHT22;1640;48.504;9.224;2022-08-24T00:48:58;17.10;49.40
3256;DHT22;1640;48.504;9.224;2022-08-24T00:51:32;17.10;48.50
3256;DHT22;1640;48.504;9.224;2022-08-24T00:54:04;17.00;48.70
3256;DHT22;1640;48.504;9.224;2022-08-24T00:56:39;17.10;49.30
3256;DHT22;1640;48.504;9.224;2022-08-24T00:59:11;17.10;51.00
3256;DHT22;1640;48.504;9.224;2022-08-24T01:01:39;17.00;54.00
3256;DHT22;1640;48.504;9.224;2022-08-24T01:04:09;17.00;53.90
3256;DHT22;1640;48.504;9.224;2022-08-24T01:06:37;17.00;54.80
3256;DHT22;1640;48.504;9.224;2022-08-24T01:09:05;17.10;55.50
3256;DHT22;1640;48.504;9.224;2022-08-24T01:11:34;17.20;59.20
3256;DHT22;1640;48.504;9.224;2022-08-24T01:14:03;17.20;58.00
3256;DHT22;1640;48.504;9.224;2022-08-24T01:16:31;17.20;60.00
3256;DHT22;1640;48.504;9.224;2022-08-24T01:19:25;17.20;59.50
3256;DHT22;1640;48.504;9.224;2022-08-24T01:22:05;17.30;60.00
3256;DHT22;1640;48.504;9.224;2022-08-24T01:24:37;17.20;59.90
3256;DHT22;1640;48.504;9.224;2022-08-24T01:27:07;17.20;59.60
3256;DHT22;1640;48.504;9.224;2022-08-24T01:29:36;17.10;60.10
3256;DHT22;1640;48.504;9.224;2022-08-24T01:32:05;17.10;58.40
3256;DHT22;1640;48.504;9.224;2022-08-24T01:34:33;17.00;58.20
3256;DHT22;1640;48.504;9.224;2022-08-24T01:37:02;17.00;58.60
3256;DHT22;1640;48.504;9.224;2022-08-24T01:39:33;16.90;58.80
3256;DHT22;1640;48.504;9.224;2022-08-24T01:42:02;16.90;57.30
3256;DHT22;1640;48.504;9.224;2022-08-24T01:44:31;16.90;57.30
3256;DHT22;1640;48.504;9.224;2022-08-24T01:47:01;16.90;56.20
3256;DHT22;1640;48.504;9.224;2022-08-24T01:49:31;16.80;56.10
3256;DHT22;1640;48.504;9.224;2022-08-24T01:51:59;16.70;55.50
3256;DHT22;1640;48.504;9.224;2022-08-24T01:54:27;16.70;55.20
3256;DHT22;1640;48.504;9.224;2022-08-24T01:56:56;16.60;55.50
3256;DHT22;1640;48.504;9.224;2022-08-24T01:59:25;16.60;56.60
3256;DHT22;1640;48.504;9.224;2022-08-24T02:01:55;16.60;56.60
3256;DHT22;1640;48.504;9.224;2022-08-24T02:04:22;16.70;54.70
3256;DHT22;1640;48.504;9.224;2022-08-24T02:06:50;16.60;55.20
3256;DHT22;1640;48.504;9.224;2022-08-24T02:09:19;16.50;55.80
3256;DHT22;1640;48.504;9.224;2022-08-24T02:11:47;16.50;53.50
3256;DHT22;1640;48.504;9.224;2022-08-24T02:14:15;16.40;54.60
3256;DHT22;1640;48.504;9.224;2022-08-24T02:16:45;16.30;52.30
3256;DHT22;1640;48.504;9.224;2022-08-24T02:19:13;16.30;52.10
3256;DHT22;1640;48.504;9.224;2022-08-24T02:21:40;16.30;51.40
3256;DHT22;1640;48.504;9.224;2022-08-24T02:24:08;16.20;50.40
3256;DHT22;1640;48.504;9.224;2022-08-24T02:26:35;16.20;49.90
3256;DHT22;1640;48.504;9.224;2022-08-24T02:29:03;16.10;49.00
3256;DHT22;1640;48.504;9.224;2022-08-24T02:31:30;16.10;49.90
3256;DHT22;1640;48.504;9.224;2022-08-24T02:33:59;16.10;49.40
3256;DHT22;1640;48.504;9.224;2022-08-24T02:36:28;16.10;49.30
3256;DHT22;1640;48.504;9.224;2022-08-24T02:38:56;16.10;48.90
3256;DHT22;1640;48.504;9.224;2022-08-24T02:41:24;16.10;48.90
3256;DHT22;1640;48.504;9.224;2022-08-24T02:43:53;16.00;49.10
3256;DHT22;1640;48.504;9.224;2022-08-24T02:46:23;16.00;48.60
3256;DHT22;1640;48.504;9.224;2022-08-24T02:48:51;15.90;48.70
3256;DHT22;1640;48.504;9.224;2022-08-24T02:51:22;15.90;49.10
3256;DHT22;1640;48.504;9.224;2022-08-24T02:53:50;15.90;48.00
3256;DHT22;1640;48.504;9.224;2022-08-24T02:56:17;15.80;47.00
3256;DHT22;1640;48.504;9.224;2022-08-24T02:58:46;15.80;46.80
3256;DHT22;1640;48.504;9.224;2022-08-24T03:01:14;15.70;47.50
3256;DHT22;1640;48.504;9.224;2022-08-24T03:03:42;15.70;45.70
3256;DHT22;1640;48.504;9.224;2022-08-24T03:06:10;15.70;44.50
3256;DHT22;1640;48.504;9.224;2022-08-24T03:08:39;15.70;42.30
3256;DHT22;1640;48.504;9.224;2022-08-24T03:11:07;15.70;43.20
3256;DHT22;1640;48.504;9.224;2022-08-24T03:13:34;15.60;42.90
3256;DHT22;1640;48.504;9.224;2022-08-24T03:16:03;15.60;42.80
3256;DHT22;1640;48.504;9.224;2022-08-24T03:18:31;15.60;41.50
3256;DHT22;1640;48.504;9.224;2022-08-24T03:21:00;15.60;43.20
3256;DHT22;1640;48.504;9.224;2022-08-24T03:23:28;15.50;41.90
3256;DHT22;1640;48.504;9.224;2022-08-24T03:25:57;15.50;41.00
3256;DHT22;1640;48.504;9.224;2022-08-24T03:28:27;15.40;41.50
3256;DHT22;1640;48.504;9.224;2022-08-24T03:30:55;15.40;40.60
3256;DHT22;1640;48.504;9.224;2022-08-24T03:33:22;15.40;39.10
3256;DHT22;1640;48.504;9.224;2022-08-24T03:35:50;15.30;40.30
3256;DHT22;1640;48.504;9.224;2022-08-24T03:38:18;15.30;40.30
3256;DHT22;1640;48.504;9.224;2022-08-24T03:40:46;15.30;39.00
3256;DHT22;1640;48.504;9.224;2022-08-24T03:43:15;15.30;39.50
3256;DHT22;1640;48.504;9.224;2022-08-24T03:45:57;15.20;39.40
3256;DHT22;1640;48.504;9.224;2022-08-24T03:48:25;15.20;37.20
3256;DHT22;1640;48.504;9.224;2022-08-24T03:50:53;15.20;36.00
3256;DHT22;1640;48.504;9.224;2022-08-24T03:53:21;15.30;38.30
3256;DHT22;1640;48.504;9.224;2022-08-24T03:55:48;15.30;39.20
3256;DHT22;1640;48.504;9.224;2022-08-24T03:58:17;15.40;38.10
3256;DHT22;1640;48.504;9.224;2022-08-24T04:00:45;15.30;43.80
3256;DHT22;1640;48.504;9.224;2022-08-24T04:03:13;15.20;44.00
3256;DHT22;1640;48.504;9.224;2022-08-24T04:05:41;15.20;39.60
3256;DHT22;1640;48.504;9.224;2022-08-24T04:08:09;15.20;38.50
3256;DHT22;1640;48.504;9.224;2022-08-24T04:10:42;15.30;41.30
3256;DHT22;1640;48.504;9.224;2022-08-24T04:13:09;15.30;42.20
3256;DHT22;1640;48.504;9.224;2022-08-24T04:15:40;15.30;42.90
3256;DHT22;1640;48.504;9.224;2022-08-24T04:18:09;15.30;41.40
3256;DHT22;1640;48.504;9.224;2022-08-24T04:20:38;15.30;42.80
3256;DHT22;1640;48.504;9.224;2022-08-24T04:23:06;15.20;43.60
3256;DHT22;1640;48.504;9.224;2022-08-24T04:25:41;15.20;41.80
3256;DHT22;1640;48.504;9.224;2022-08-24T04:28:09;15.20;41.50
3256;DHT22;1640;48.504;9.224;2022-08-24T04:30:41;15.30;41.40
3256;DHT22;1640;48.504;9.224;2022-08-24T04:33:09;15.30;41.10
3256;DHT22;1640;48.504;9.224;2022-08-24T04:35:38;15.30;41.40
3256;DHT22;1640;48.504;9.224;2022-08-24T04:38:06;15.40;42.30
3256;DHT22;1640;48.504;9.224;2022-08-24T04:40:36;15.50;43.80
3256;DHT22;1640;48.504;9.224;2022-08-24T04:43:04;15.50;44.80
3256;DHT22;1640;48.504;9.224;2022-08-24T04:45:32;15.60;45.30
3256;DHT22;1640;48.504;9.224;2022-08-24T04:48:01;15.60;46.30
3256;DHT22;1640;48.504;9.224;2022-08-24T04:50:29;15.60;47.20
3256;DHT22;1640;48.504;9.224;2022-08-24T04:52:56;15.70;47.60
3256;DHT22;1640;48.504;9.224;2022-08-24T04:55:24;15.80;47.60
3256;DHT22;1640;48.504;9.224;2022-08-24T04:57:51;15.90;48.70
3256;DHT22;1640;48.504;9.224;2022-08-24T05:00:19;16.10;52.50
3256;DHT22;1640;48.504;9.224;2022-08-24T05:02:47;16.30;54.70
3256;DHT22;1640;48.504;9.224;2022-08-24T05:05:16;16.30;55.40
3256;DHT22;1640;48.504;9.224;2022-08-24T05:07:43;16.30;55.90
3256;DHT22;1640;48.504;9.224;2022-08-24T05:10:11;16.40;56.90
3256;DHT22;1640;48.504;9.224;2022-08-24T05:12:38;16.40;57.50
3256;DHT22;1640;48.504;9.224;2022-08-24T05:15:08;16.40;57.70
3256;DHT22;1640;48.504;9.224;2022-08-24T05:17:36;16.40;57.30
3256;DHT22;1640;48.504;9.224;2022-08-24T05:20:06;16.40;56.50
3256;DHT22;1640;48.504;9.224;2022-08-24T05:22:36;16.40;56.90
3256;DHT22;1640;48.504;9.224;2022-08-24T05:25:04;16.50;56.70
3256;DHT22;1640;48.504;9.224;2022-08-24T05:27:32;16.40;55.20
3256;DHT22;1640;48.504;9.224;2022-08-24T05:30:00;16.50;54.30
3256;DHT22;1640;48.504;9.224;2022-08-24T05:32:28;16.50;53.70
3256;DHT22;1640;48.504;9.224;2022-08-24T05:34:57;16.50;54.00
3256;DHT22;1640;48.504;9.224;2022-08-24T05:37:25;16.50;53.90
3256;DHT22;1640;48.504;9.224;2022-08-24T05:39:54;16.60;54.40
3256;DHT22;1640;48.504;9.224;2022-08-24T05:42:22;16.60;55.40
3256;DHT22;1640;48.504;9.224;2022-08-24T05:44:49;16.60;56.10
3256;DHT22;1640;48.504;9.224;2022-08-24T05:47:17;16.60;54.60
3256;DHT22;1640;48.504;9.224;2022-08-24T05:49:46;16.70;55.00
3256;DHT22;1640;48.504;9.224;2022-08-24T05:52:18;16.80;57.30
3256;DHT22;1640;48.504;9.224;2022-08-24T05:54:50;16.80;57.50
3256;DHT22;1640;48.504;9.224;2022-08-24T05:57:21;16.90;58.10
3256;DHT22;1640;48.504;9.224;2022-08-24T05:59:50;16.90;59.00
3256;DHT22;1640;48.504;9.224;2022-08-24T06:02:18;16.90;59.20
3256;DHT22;1640;48.504;9.224;2022-08-24T06:04:46;17.00;58.80
3256;DHT22;1640;48.504;9.224;2022-08-24T06:07:15;17.10;60.10
3256;DHT22;1640;48.504;9.224;2022-08-24T06:09:44;17.00;60.10
3256;DHT22;1640;48.504;9.224;2022-08-24T06:12:11;17.00;58.60
3256;DHT22;1640;48.504;9.224;2022-08-24T06:14:44;17.10;60.30
3256;DHT22;1640;48.504;9.224;2022-08-24T06:17:12;17.20;59.90
3256;DHT22;1640;48.504;9.224;2022-08-24T06:19:40;17.20;60.00
3256;DHT22;1640;48.504;9.224;2022-08-24T06:22:09;17.30;60.70
3256;DHT22;1640;48.504;9.224;2022-08-24T06:24:36;17.40;61.10
3256;DHT22;1640;48.504;9.224;2022-08-24T06:27:22;17.60;61.90
3256;DHT22;1640;48.504;9.224;2022-08-24T06:29:55;17.80;62.60
3256;DHT22;1640;48.504;9.224;2022-08-24T06:32:23;17.70;63.60
3256;DHT22;1640;48.504;9.224;2022-08-24T06:34:55;17.70;63.60
3256;DHT22;1640;48.504;9.224;2022-08-24T06:37:23;17.70;63.70
3256;DHT22;1640;48.504;9.224;2022-08-24T06:39:53;17.70;64.20
3256;DHT22;1640;48.504;9.224;2022-08-24T06:42:21;17.80;63.90
3256;DHT22;1640;48.504;9.224;2022-08-24T06:44:51;17.90;64.50
3256;DHT22;1640;48.504;9.224;2022-08-24T06:47:19;18.10;64.20
3256;DHT22;1640;48.504;9.224;2022-08-24T06:49:47;18.10;65.60
3256;DHT22;1640;48.504;9.224;2022-08-24T06:52:14;18.10;65.70
3256;DHT22;1640;48.504;9.224;2022-08-24T06:54:42;18.20;65.90
3256;DHT22;1640;48.504;9.224;2022-08-24T06:57:10;18.30;66.00
3256;DHT22;1640;48.504;9.224;2022-08-24T06:59:38;18.50;66.50
3256;DHT22;1640;48.504;9.224;2022-08-24T07:02:09;18.50;67.60
3256;DHT22;1640;48.504;9.224;2022-08-24T07:04:43;18.60;68.80
3256;DHT22;1640;48.504;9.224;2022-08-24T07:07:16;18.60;68.60
3256;DHT22;1640;48.504;9.224;2022-08-24T07:09:43;18.80;69.00
3256;DHT22;1640;48.504;9.224;2022-08-24T07:12:11;19.00;69.00
3256;DHT22;1640;48.504;9.224;2022-08-24T07:14:38;19.10;69.00
3256;DHT22;1640;48.504;9.224;2022-08-24T07:17:06;19.20;69.50
3256;DHT22;1640;48.504;9.224;2022-08-24T07:19:34;19.30;69.50
3256;DHT22;1640;48.504;9.224;2022-08-24T07:22:02;19.40;70.80
3256;DHT22;1640;48.504;9.224;2022-08-24T07:24:30;19.50;70.60
3256;DHT22;1640;48.504;9.224;2022-08-24T07:26:59;19.50;70.30
3256;DHT22;1640;48.504;9.224;2022-08-24T07:29:27;19.50;70.80
3256;DHT22;1640;48.504;9.224;2022-08-24T07:31:54;19.60;70.90
3256;DHT22;1640;48.504;9.224;2022-08-24T07:34:22;19.70;70.50
3256;DHT22;1640;48.504;9.224;2022-08-24T07:36:51;19.90;70.90
3256;DHT22;1640;48.504;9.224;2022-08-24T07:39:20;20.00;70.80
3256;DHT22;1640;48.504;9.224;2022-08-24T07:41:47;19.90;70.90
3256;DHT22;1640;48.504;9.224;2022-08-24T07:44:14;20.00;71.10
3256;DHT22;1640;48.504;9.224;2022-08-24T07:46:42;20.10;71.10
3256;DHT22;1640;48.504;9.224;2022-08-24T07:49:10;20.20;71.20
3256;DHT22;1640;48.504;9.224;2022-08-24T07:51:39;20.40;70.90
3256;DHT22;1640;48.504;9.224;2022-08-24T07:54:08;20.40;71.10
3256;DHT22;1640;48.504;9.224;2022-08-24T07:56:36;20.50;70.80
3256;DHT22;1640;48.504;9.224;2022-08-24T07:59:04;20.70;70.90
3256;DHT22;1640;48.504;9.224;2022-08-24T08:01:32;20.80;70.80
3256;DHT22;1640;48.504;9.224;2022-08-24T08:04:01;20.80;70.90
3256;DHT22;1640;48.504;9.224;2022-08-24T08:06:28;21.00;70.90
3256;DHT22;1640;48.504;9.224;2022-08-24T08:08:57;21.00;70.60
3256;DHT22;1640;48.504;9.224;2022-08-24T08:11:27;21.10;70.60
3256;DHT22;1640;48.504;9.224;2022-08-24T08:13:54;21.10;70.50
3256;DHT22;1640;48.504;9.224;2022-08-24T08:16:22;21.30;70.50
3256;DHT22;1640;48.504;9.224;2022-08-24T08:18:49;21.40;70.90
3256;DHT22;1640;48.504;9.224;2022-08-24T08:21:17;21.50;70.50
3256;DHT22;1640;48.504;9.224;2022-08-24T08:24:03;21.60;70.30
3256;DHT22;1640;48.504;9.224;2022-08-24T08:26:51;21.80;70.20
3256;DHT22;1640;48.504;9.224;2022-08-24T08:29:19;22.00;70.00
3256;DHT22;1640;48.504;9.224;2022-08-24T08:31:48;22.00;69.80
3256;DHT22;1640;48.504;9.224;2022-08-24T08:34:17;22.20;69.60
3256;DHT22;1640;48.504;9.224;2022-08-24T08:36:44;22.30;69.50
3256;DHT22;1640;48.504;9.224;2022-08-24T08:39:14;22.40;68.80
3256;DHT22;1640;48.504;9.224;2022-08-24T08:42:05;22.40;69.00
3256;DHT22;1640;48.504;9.224;2022-08-24T08:44:53;22.50;69.00
3256;DHT22;1640;48.504;9.224;2022-08-24T08:50:16;22.60;68.80
3256;DHT22;1640;48.504;9.224;2022-08-24T08:55:51;22.80;68.60
3256;DHT22;1640;48.504;9.224;2022-08-24T08:58:37;22.90;69.20
3256;DHT22;1640;48.504;9.224;2022-08-24T09:01:13;23.10;69.00
3256;DHT22;1640;48.504;9.224;2022-08-24T09:04:02;23.20;67.50
3256;DHT22;1640;48.504;9.224;2022-08-24T09:09:42;23.70;67.30
3256;DHT22;1640;48.504;9.224;2022-08-24T09:12:17;23.80;65.90
3256;DHT22;1640;48.504;9.224;2022-08-24T09:17:57;23.90;63.90
3256;DHT22;1640;48.504;9.224;2022-08-24T09:20:59;24.00;61.60
3256;DHT22;1640;48.504;9.224;2022-08-24T09:23:35;24.10;60.40
3256;DHT22;1640;48.504;9.224;2022-08-24T09:26:12;24.20;58.50
3256;DHT22;1640;48.504;9.224;2022-08-24T09:28:52;24.30;59.50
3256;DHT22;1640;48.504;9.224;2022-08-24T09:31:49;24.50;58.80
3256;DHT22;1640;48.504;9.224;2022-08-24T09:34:30;24.70;55.80
3256;DHT22;1640;48.504;9.224;2022-08-24T09:37:04;24.70;56.10
3256;DHT22;1640;48.504;9.224;2022-08-24T09:39:55;24.70;54.80
3256;DHT22;1640;48.504;9.224;2022-08-24T09:45:50;25.00;54.00
3256;DHT22;1640;48.504;9.224;2022-08-24T09:48:51;25.10;51.60
3256;DHT22;1640;48.504;9.224;2022-08-24T09:52:03;25.20;51.00
3256;DHT22;1640;48.504;9.224;2022-08-24T09:55:05;25.30;50.80
3256;DHT22;1640;48.504;9.224;2022-08-24T09:57:47;25.40;50.90
3256;DHT22;1640;48.504;9.224;2022-08-24T10:00:23;25.40;49.00
3256;DHT22;1640;48.504;9.224;2022-08-24T10:03:18;25.60;49.10
3256;DHT22;1640;48.504;9.224;2022-08-24T10:06:05;25.90;49.10
3256;DHT22;1640;48.504;9.224;2022-08-24T10:08:53;25.90;50.10
3256;DHT22;1640;48.504;9.224;2022-08-24T10:11:33;25.90;49.30
3256;DHT22;1640;48.504;9.224;2022-08-24T10:14:08;25.90;46.80
3256;DHT22;1640;48.504;9.224;2022-08-24T10:16:46;25.90;46.30
3256;DHT22;1640;48.504;9.224;2022-08-24T10:19:34;25.90;45.90
3256;DHT22;1640;48.504;9.224;2022-08-24T10:22:14;26.10;46.30
3256;DHT22;1640;48.504;9.224;2022-08-24T10:25:05;26.20;42.30
3256;DHT22;1640;48.504;9.224;2022-08-24T10:27:45;26.20;39.40
3256;DHT22;1640;48.504;9.224;2022-08-24T10:33:23;26.40;41.70
3256;DHT22;1640;48.504;9.224;2022-08-24T10:36:04;26.70;39.20
3256;DHT22;1640;48.504;9.224;2022-08-24T10:38:44;26.70;42.20
3256;DHT22;1640;48.504;9.224;2022-08-24T10:41:56;26.90;40.20
3256;DHT22;1640;48.504;9.224;2022-08-24T10:44:42;26.90;39.60
3256;DHT22;1640;48.504;9.224;2022-08-24T10:47:18;27.00;38.40
3256;DHT22;1640;48.504;9.224;2022-08-24T10:50:23;26.90;39.80
3256;DHT22;1640;48.504;9.224;2022-08-24T10:53:11;27.00;40.90
3256;DHT22;1640;48.504;9.224;2022-08-24T10:55:42;27.00;42.90
3256;DHT22;1640;48.504;9.224;2022-08-24T10:58:37;26.90;43.40
3256;DHT22;1640;48.504;9.224;2022-08-24T11:01:23;26.90;41.10
3256;DHT22;1640;48.504;9.224;2022-08-24T11:03:56;27.00;41.90
3256;DHT22;1640;48.504;9.224;2022-08-24T11:06:26;27.20;40.30
3256;DHT22;1640;48.504;9.224;2022-08-24T11:08:59;27.20;40.30
3256;DHT22;1640;48.504;9.224;2022-08-24T11:11:31;27.00;42.50
3256;DHT22;1640;48.504;9.224;2022-08-24T11:14:02;27.10;42.60
3256;DHT22;1640;48.504;9.224;2022-08-24T11:16:34;27.10;44.10
3256;DHT22;1640;48.504;9.224;2022-08-24T11:19:06;27.20;42.20
3256;DHT22;1640;48.504;9.224;2022-08-24T11:21:47;27.20;41.80
3256;DHT22;1640;48.504;9.224;2022-08-24T11:24:36;27.40;41.40
3256;DHT22;1640;48.504;9.224;2022-08-24T11:27:17;27.50;39.60
3256;DHT22;1640;48.504;9.224;2022-08-24T11:29:57;27.60;41.40
3256;DHT22;1640;48.504;9.224;2022-08-24T11:32:28;27.70;40.60
3256;DHT22;1640;48.504;9.224;2022-08-24T11:35:03;27.80;40.00
3256;DHT22;1640;48.504;9.224;2022-08-24T11:37:33;27.80;39.20
3256;DHT22;1640;48.504;9.224;2022-08-24T11:40:01;27.80;37.70
3256;DHT22;1640;48.504;9.224;2022-08-24T11:45:24;27.50;36.90
3256;DHT22;1640;48.504;9.224;2022-08-24T11:48:01;27.30;38.70
3256;DHT22;1640;48.504;9.224;2022-08-24T11:50:35;27.20;37.60
3256;DHT22;1640;48.504;9.224;2022-08-24T11:53:22;27.30;39.10
3256;DHT22;1640;48.504;9.224;2022-08-24T11:55:57;27.20;37.10
3256;DHT22;1640;48.504;9.224;2022-08-24T11:58:39;27.30;37.60
3256;DHT22;1640;48.504;9.224;2022-08-24T12:01:16;27.40;36.50
3256;DHT22;1640;48.504;9.224;2022-08-24T12:04:06;27.50;36.50
3256;DHT22;1640;48.504;9.224;2022-08-24T12:06:44;27.60;35.30
3256;DHT22;1640;48.504;9.224;2022-08-24T12:09:25;27.80;36.00
3256;DHT22;1640;48.504;9.224;2022-08-24T12:11:58;27.80;35.60
3256;DHT22;1640;48.504;9.224;2022-08-24T12:14:34;27.90;36.40
3256;DHT22;1640;48.504;9.224;2022-08-24T12:17:08;28.00;36.00
3256;DHT22;1640;48.504;9.224;2022-08-24T12:19:45;28.00;37.10
3256;DHT22;1640;48.504;9.224;2022-08-24T12:22:14;27.80;37.90
3256;DHT22;1640;48.504;9.224;2022-08-24T12:24:46;27.90;36.20
3256;DHT22;1640;48.504;9.224;2022-08-24T12:27:18;28.00;35.40
3256;DHT22;1640;48.504;9.224;2022-08-24T12:29:51;27.90;36.40
3256;DHT22;1640;48.504;9.224;2022-08-24T12:32:25;28.00;37.20
3256;DHT22;1640;48.504;9.224;2022-08-24T12:34:56;28.00;37.30
3256;DHT22;1640;48.504;9.224;2022-08-24T12:37:28;27.90;37.30
3256;DHT22;1640;48.504;9.224;2022-08-24T12:40:05;28.00;36.80
3256;DHT22;1640;48.504;9.224;2022-08-24T12:42:42;27.90;38.30
3256;DHT22;1640;48.504;9.224;2022-08-24T12:45:15;28.10;39.20
3256;DHT22;1640;48.504;9.224;2022-08-24T12:47:46;28.10;38.70
3256;DHT22;1640;48.504;9.224;2022-08-24T12:50:22;28.20;40.00
3256;DHT22;1640;48.504;9.224;2022-08-24T12:53:21;28.10;39.10
3256;DHT22;1640;48.504;9.224;2022-08-24T12:56:11;28.00;39.80
3256;DHT22;1640;48.504;9.224;2022-08-24T12:58:59;28.10;39.90
3256;DHT22;1640;48.504;9.224;2022-08-24T13:01:32;28.00;40.00
3256;DHT22;1640;48.504;9.224;2022-08-24T13:04:17;28.10;40.00
3256;DHT22;1640;48.504;9.224;2022-08-24T13:06:49;28.10;39.90
3256;DHT22;1640;48.504;9.224;2022-08-24T13:09:29;28.00;42.10
3256;DHT22;1640;48.504;9.224;2022-08-24T13:12:45;28.10;41.40
3256;DHT22;1640;48.504;9.224;2022-08-24T13:14:50;28.30;40.40
3256;DHT22;1640;48.504;9.224;2022-08-24T13:17:18;28.30;41.80
3256;DHT22;1640;48.504;9.224;2022-08-24T13:20:17;28.40;41.30
3256;DHT22;1640;48.504;9.224;2022-08-24T13:23:04;28.40;41.90
3256;DHT22;1640;48.504;9.224;2022-08-24T13:25:52;28.40;42.20
3256;DHT22;1640;48.504;9.224;2022-08-24T13:28:38;28.60;43.60
3256;DHT22;1640;48.504;9.224;2022-08-24T13:33:59;28.50;42.50
3256;DHT22;1640;48.504;9.224;2022-08-24T13:37:03;28.60;42.80
3256;DHT22;1640;48.504;9.224;2022-08-24T13:39:59;28.60;43.00
3256;DHT22;1640;48.504;9.224;2022-08-24T13:42:59;28.60;42.50
3256;DHT22;1640;48.504;9.224;2022-08-24T13:45:35;28.60;42.30
3256;DHT22;1640;48.504;9.224;2022-08-24T13:48:22;28.70;42.60
3256;DHT22;1640;48.504;9.224;2022-08-24T13:51:17;28.80;42.90
3256;DHT22;1640;48.504;9.224;2022-08-24T13:54:12;28.80;42.30
3256;DHT22;1640;48.504;9.224;2022-08-24T13:57:02;28.90;44.50
3256;DHT22;1640;48.504;9.224;2022-08-24T13:59:57;28.90;42.80
3256;DHT22;1640;48.504;9.224;2022-08-24T14:02:34;29.10;44.00
3256;DHT22;1640;48.504;9.224;2022-08-24T14:05:16;29.30;43.60
3256;DHT22;1640;48.504;9.224;2022-08-24T14:07:55;29.30;41.90
3256;DHT22;1640;48.504;9.224;2022-08-24T14:10:43;29.40;43.80
3256;DHT22;1640;48.504;9.224;2022-08-24T14:13:29;29.30;45.50
3256;DHT22;1640;48.504;9.224;2022-08-24T14:16:02;29.50;45.60
3256;DHT22;1640;48.504;9.224;2022-08-24T14:18:59;29.60;44.10
3256;DHT22;1640;48.504;9.224;2022-08-24T14:21:38;29.80;42.60
3256;DHT22;1640;48.504;9.224;2022-08-24T14:24:10;29.80;43.00
3256;DHT22;1640;48.504;9.224;2022-08-24T14:27:09;29.80;44.20
3256;DHT22;1640;48.504;9.224;2022-08-24T14:29:45;29.80;43.60
3256;DHT22;1640;48.504;9.224;2022-08-24T14:32:31;29.70;45.70
3256;DHT22;1640;48.504;9.224;2022-08-24T14:35:21;29.60;43.80
3256;DHT22;1640;48.504;9.224;2022-08-24T14:38:04;29.60;43.60
3256;DHT22;1640;48.504;9.224;2022-08-24T14:40:37;29.60;46.70
3256;DHT22;1640;48.504;9.224;2022-08-24T14:43:22;29.70;44.40
3256;DHT22;1640;48.504;9.224;2022-08-24T14:45:55;29.70;45.50
3256;DHT22;1640;48.504;9.224;2022-08-24T14:48:36;29.80;45.90
3256;DHT22;1640;48.504;9.224;2022-08-24T14:51:15;29.90;46.80
3256;DHT22;1640;48.504;9.224;2022-08-24T14:53:55;30.10;44.20
3256;DHT22;1640;48.504;9.224;2022-08-24T14:56:39;30.20;44.50
3256;DHT22;1640;48.504;9.224;2022-08-24T14:59:14;30.90;42.30
3256;DHT22;1640;48.504;9.224;2022-08-24T15:01:49;31.60;41.80
3256;DHT22;1640;48.504;9.224;2022-08-24T15:04:35;32.20;39.40
3256;DHT22;1640;48.504;9.224;2022-08-24T15:07:24;33.00;37.50
3256;DHT22;1640;48.504;9.224;2022-08-24T15:09:52;33.90;36.90
3256;DHT22;1640;48.504;9.224;2022-08-24T15:12:34;33.90;35.00
3256;DHT22;1640;48.504;9.224;2022-08-24T15:15:09;34.30;34.90
3256;DHT22;1640;48.504;9.224;2022-08-24T15:17:44;34.20;33.40
3256;DHT22;1640;48.504;9.224;2022-08-24T15:20:18;34.50;33.00
3256;DHT22;1640;48.504;9.224;2022-08-24T15:22:53;34.50;33.80
3256;DHT22;1640;48.504;9.224;2022-08-24T15:25:32;34.20;34.50
3256;DHT22;1640;48.504;9.224;2022-08-24T15:28:08;34.10;34.70
3256;DHT22;1640;48.504;9.224;2022-08-24T15:30:40;33.90;35.40
3256;DHT22;1640;48.504;9.224;2022-08-24T15:33:11;33.60;35.40
3256;DHT22;1640;48.504;9.224;2022-08-24T15:35:42;32.90;37.10
3256;DHT22;1640;48.504;9.224;2022-08-24T15:38:17;32.70;37.70
3256;DHT22;1640;48.504;9.224;2022-08-24T15:40:46;33.00;38.00
3256;DHT22;1640;48.504;9.224;2022-08-24T15:43:15;33.50;36.60
3256;DHT22;1640;48.504;9.224;2022-08-24T15:45:46;33.90;36.10
3256;DHT22;1640;48.504;9.224;2022-08-24T15:48:18;34.90;34.60
3256;DHT22;1640;48.504;9.224;2022-08-24T15:50:49;35.30;32.40
3256;DHT22;1640;48.504;9.224;2022-08-24T15:53:38;35.50;31.50
3256;DHT22;1640;48.504;9.224;2022-08-24T15:56:28;35.20;32.70
3256;DHT22;1640;48.504;9.224;2022-08-24T15:59:10;35.10;32.70
3256;DHT22;1640;48.504;9.224;2022-08-24T16:01:39;34.00;35.30
3256;DHT22;1640;48.504;9.224;2022-08-24T16:04:39;33.10;37.70
3256;DHT22;1640;48.504;9.224;2022-08-24T16:07:12;32.80;39.00
3256;DHT22;1640;48.504;9.224;2022-08-24T16:09:40;33.30;36.80
3256;DHT22;1640;48.504;9.224;2022-08-24T16:12:09;33.60;36.10
3256;DHT22;1640;48.504;9.224;2022-08-24T16:14:40;33.70;36.50
3256;DHT22;1640;48.504;9.224;2022-08-24T16:17:27;33.40;36.90
3256;DHT22;1640;48.504;9.224;2022-08-24T16:19:57;33.20;37.30
3256;DHT22;1640;48.504;9.224;2022-08-24T16:22:29;32.50;38.50
3256;DHT22;1640;48.504;9.224;2022-08-24T16:27:59;31.20;41.70
3256;DHT22;1640;48.504;9.224;2022-08-24T16:30:44;30.70;42.30
3256;DHT22;1640;48.504;9.224;2022-08-24T16:33:36;30.70;43.40
3256;DHT22;1640;48.504;9.224;2022-08-24T16:36:09;31.10;42.20
3256;DHT22;1640;48.504;9.224;2022-08-24T16:38:37;31.10;42.90
3256;DHT22;1640;48.504;9.224;2022-08-24T16:41:09;30.90;42.90
3256;DHT22;1640;48.504;9.224;2022-08-24T16:43:39;31.50;41.80
3256;DHT22;1640;48.504;9.224;2022-08-24T16:46:09;32.10;41.10
3256;DHT22;1640;48.504;9.224;2022-08-24T16:48:38;32.30;40.60
3256;DHT22;1640;48.504;9.224;2022-08-24T16:51:06;31.90;41.40
3256;DHT22;1640;48.504;9.224;2022-08-24T16:53:34;31.50;42.50
3256;DHT22;1640;48.504;9.224;2022-08-24T16:56:02;31.20;43.40
3256;DHT22;1640;48.504;9.224;2022-08-24T16:58:32;30.60;45.20
3256;DHT22;1640;48.504;9.224;2022-08-24T17:01:00;30.10;46.70
3256;DHT22;1640;48.504;9.224;2022-08-24T17:03:28;30.00;47.00
3256;DHT22;1640;48.504;9.224;2022-08-24T17:05:57;29.90;48.20
3256;DHT22;1640;48.504;9.224;2022-08-24T17:08:26;29.90;47.50
3256;DHT22;1640;48.504;9.224;2022-08-24T17:10:54;29.40;49.00
3256;DHT22;1640;48.504;9.224;2022-08-24T17:13:22;29.10;50.20